Time;durP1;ratioP1;P1;durP2;ratioP2;P2;SDS_P1;SDS_P2;PMS_P1;PMS_P2;Temp;Humidity;BMP_temperature;BMP_pressure;BME280_temperature;BME280_humidity;BME280_pressure;Samples;Min_cycle;Max_cycle;Signal;HPM_P1;HPM_P2
2021/10/16 00:00:08;;;;;;;14.57;5.97;;;;;;;2.90;100.00;102070.44;2105937;28;20270;-69
2021/10/16 00:01:12;;;;;;;;;;;;;;;2.91;100.00;102072.16;2106473;28;20032;-71
2021/10/16 00:02:13;;;;;;;10.60;5.60;;;;;;;2.94;100.00;102072.19;2106675;28;19915;-69
2021/10/16 00:03:13;;;;;;;9.85;5.22;;;;;;;2.95;100.00;102067.91;2106585;28;20111;-69
2021/10/16 00:04:14;;;;;;;11.90;5.80;;;;;;;2.92;100.00;102068.75;2106647;28;20089;-70
2021/10/16 00:05:15;;;;;;;10.95;5.30;;;;;;;2.90;100.00;102077.31;2106644;28;20032;-69
2021/10/16 00:06:16;;;;;;;10.30;5.83;;;;;;;2.88;100.00;102073.88;2107837;28;20039;-69
2021/10/16 00:07:17;;;;;;;9.85;4.78;;;;;;;2.88;100.00;102074.75;2108241;28;20477;-69
2021/10/16 00:08:17;;;;;;;10.05;5.57;;;;;;;2.89;100.00;102078.16;2108202;28;20035;-69
2021/10/16 00:09:18;;;;;;;17.83;6.17;;;;;;;2.88;100.00;102072.16;2107546;28;20412;-68
2021/10/16 00:10:19;;;;;;;15.43;5.75;;;;;;;2.87;100.00;102079.88;2107635;28;20027;-67
2021/10/16 00:11:20;;;;;;;13.57;5.80;;;;;;;2.85;100.00;102076.41;2107510;28;20034;-70
2021/10/16 00:12:20;;;;;;;12.25;5.63;;;;;;;2.86;100.00;102080.72;2107606;28;20031;-69
2021/10/16 00:13:21;;;;;;;12.95;5.40;;;;;;;2.84;100.00;102083.28;2108170;28;20056;-70
2021/10/16 00:14:22;;;;;;;11.40;5.13;;;;;;;2.83;100.00;102084.13;2107548;28;20054;-69
2021/10/16 00:15:22;;;;;;;11.13;6.35;;;;;;;2.83;100.00;102084.13;2107579;28;20028;-69
2021/10/16 00:16:23;;;;;;;11.80;5.20;;;;;;;2.83;100.00;102077.28;2108133;28;20016;-70
2021/10/16 00:17:24;;;;;;;11.93;6.35;;;;;;;2.83;100.00;102082.44;2108112;28;20020;-69
2021/10/16 00:18:26;;;;;;;9.38;5.38;;;;;;;2.83;100.00;102081.56;2108160;28;20032;-69
2021/10/16 00:19:26;;;;;;;10.60;5.55;;;;;;;2.81;100.00;102084.09;2108130;28;20031;-69
2021/10/16 00:20:27;;;;;;;14.37;6.50;;;;;;;2.81;100.00;102080.69;2108153;28;20062;-69
2021/10/16 00:21:28;;;;;;;11.23;6.15;;;;;;;2.79;100.00;102083.25;2108062;28;20306;-68
2021/10/16 00:22:29;;;;;;;18.35;5.82;;;;;;;2.78;100.00;102085.81;2108181;28;20495;-68
2021/10/16 00:23:30;;;;;;;21.17;6.85;;;;;;;2.76;100.00;102088.38;2107308;28;20040;-68
2021/10/16 00:24:31;;;;;;;15.88;6.50;;;;;;;2.75;100.00;102093.50;2099057;28;20028;-69
2021/10/16 00:25:32;;;;;;;12.68;4.72;;;;;;;2.73;100.00;102090.06;2098985;28;20059;-68
2021/10/16 00:26:33;;;;;;;16.05;5.93;;;;;;;2.70;100.00;102088.28;2107405;28;20039;-69
2021/10/16 00:27:34;;;;;;;10.48;6.13;;;;;;;2.69;100.00;102090.03;2107526;28;20047;-68
2021/10/16 00:28:35;;;;;;;11.50;5.15;;;;;;;2.67;100.00;102085.69;2107367;28;20469;-68
2021/10/16 00:29:35;;;;;;;9.27;5.47;;;;;;;2.65;100.00;102083.09;2107525;28;20247;-69
2021/10/16 00:30:36;;;;;;;15.85;5.03;;;;;;;2.63;100.00;102083.94;2107994;28;20396;-69
2021/10/16 00:31:37;;;;;;;15.82;5.13;;;;;;;2.61;100.00;102085.63;2108076;28;20103;-69
2021/10/16 00:32:37;;;;;;;12.63;5.20;;;;;;;2.57;100.00;102077.00;2108050;28;20073;-68
2021/10/16 00:33:38;;;;;;;13.23;5.83;;;;;;;2.57;100.00;102077.84;2108038;28;20012;-68
2021/10/16 00:34:38;;;;;;;14.68;6.22;;;;;;;2.59;100.00;102079.59;2108064;28;20381;-69
2021/10/16 00:35:39;;;;;;;11.20;4.57;;;;;;;2.57;100.00;102082.16;2107880;28;20040;-68
2021/10/16 00:36:40;;;;;;;7.45;3.92;;;;;;;2.54;100.00;102082.97;2107329;28;20107;-68
2021/10/16 00:37:41;;;;;;;10.18;5.07;;;;;;;2.54;100.00;102077.81;2107399;28;20107;-68
2021/10/16 00:38:41;;;;;;;13.15;4.45;;;;;;;2.53;100.00;102076.09;2108022;28;20031;-69
2021/10/16 00:39:42;;;;;;;10.50;5.32;;;;;;;2.51;100.00;102077.81;2107935;28;20435;-68
2021/10/16 00:40:43;;;;;;;8.55;4.97;;;;;;;2.53;100.00;102078.66;2107993;28;20024;-68
2021/10/16 00:41:43;;;;;;;20.52;5.47;;;;;;;2.52;100.00;102079.53;2108039;28;20395;-68
2021/10/16 00:42:53;;;;;;;11.23;5.00;;;;;;;2.52;100.00;102076.06;2107956;28;20051;-67
2021/10/16 00:44:12;;;;;;;14.90;4.85;;;;;;;2.51;100.00;102077.81;2107928;28;20329;-68
2021/10/16 00:45:14;;;;;;;17.42;5.28;;;;;;;2.51;100.00;102076.94;2107948;28;20388;-68
2021/10/16 00:46:15;;;;;;;9.55;4.95;;;;;;;2.51;100.00;102072.66;2107933;28;20057;-69
2021/10/16 00:47:16;;;;;;;10.05;4.13;;;;;;;2.49;100.00;102074.31;2107980;28;20500;-69
2021/10/16 00:48:16;;;;;;;10.32;4.90;;;;;;;2.50;100.00;102075.19;2107923;28;20024;-69
2021/10/16 00:49:17;;;;;;;16.77;5.67;;;;;;;2.49;100.00;102074.31;2107942;28;20031;-69
2021/10/16 00:50:19;;;;;;;9.95;4.82;;;;;;;2.50;100.00;102070.91;2107934;28;20028;-69
2021/10/16 00:51:20;;;;;;;9.80;5.00;;;;;;;2.47;100.00;102078.63;2107901;28;20055;-68
2021/10/16 00:52:20;;;;;;;9.53;5.43;;;;;;;2.46;100.00;102076.84;2107941;28;20473;-69
2021/10/16 00:53:22;;;;;;;7.93;4.67;;;;;;;2.46;100.00;102073.44;2107909;28;20372;-69
2021/10/16 00:54:23;;;;;;;19.20;4.75;;;;;;;2.48;100.00;102077.75;2107741;28;20036;-67
2021/10/16 00:55:26;;;;;;;14.18;4.80;;;;;;;2.46;100.00;102071.72;2107893;28;20032;-68
2021/10/16 00:56:27;;;;;;;8.15;4.03;;;;;;;2.45;100.00;102072.56;2107844;28;20405;-67
2021/10/16 00:57:27;;;;;;;9.80;4.07;;;;;;;2.46;100.00;102071.72;2107840;28;20024;-68
2021/10/16 00:58:29;;;;;;;13.00;4.60;;;;;;;2.46;100.00;102069.13;2107884;28;20480;-69
2021/10/16 00:59:30;;;;;;;7.88;4.68;;;;;;;2.48;100.00;102067.44;2107076;28;20145;-68
2021/10/16 01:00:31;;;;;;;8.00;4.28;;;;;;;2.49;100.00;102069.16;2107237;28;20024;-68
2021/10/16 01:01:32;;;;;;;11.07;4.07;;;;;;;2.50;100.00;102065.75;2107826;28;20026;-69
2021/10/16 01:02:34;;;;;;;11.13;4.32;;;;;;;2.50;100.00;102062.31;2107718;28;20353;-69
2021/10/16 01:03:34;;;;;;;12.00;4.18;;;;;;;2.49;100.00;102064.00;2107702;28;20034;-69
2021/10/16 01:04:35;;;;;;;8.83;4.63;;;;;;;2.48;100.00;102072.59;2107792;28;20012;-68
2021/10/16 01:05:37;;;;;;;11.88;5.25;;;;;;;2.48;100.00;102067.44;2107835;28;20281;-69
2021/10/16 01:06:38;;;;;;;7.53;3.97;;;;;;;2.46;100.00;102074.28;2107668;28;20035;-68
2021/10/16 01:07:40;;;;;;;9.32;4.60;;;;;;;2.43;100.00;102064.81;2107776;28;20061;-68
2021/10/16 01:08:41;;;;;;;8.25;3.97;;;;;;;2.42;100.00;102073.41;2107090;28;20027;-68
2021/10/16 01:09:45;;;;;;;8.00;4.38;;;;;;;2.42;100.00;102065.66;2107258;28;20032;-68
2021/10/16 01:10:46;;;;;;;9.60;5.07;;;;;;;2.45;100.00;102072.56;2107751;28;20043;-69
2021/10/16 01:11:53;;;;;;;11.80;4.75;;;;;;;2.43;100.00;102069.97;2107728;28;20027;-68
2021/10/16 01:12:53;;;;;;;15.65;4.57;;;;;;;2.44;100.00;102071.69;2107787;28;20516;-68
2021/10/16 01:13:54;;;;;;;5.95;3.50;;;;;;;2.43;100.00;102064.81;2107760;28;20107;-69
2021/10/16 01:14:57;;;;;;;8.73;3.97;;;;;;;2.41;100.00;102070.81;2107762;28;20031;-68
2021/10/16 01:15:59;;;;;;;12.43;4.55;;;;;;;2.38;100.00;102068.19;2107699;28;20044;-69
2021/10/16 01:17:00;;;;;;;10.60;4.78;;;;;;;2.35;100.00;102068.13;2107674;28;20102;-69
2021/10/16 01:18:01;;;;;;;8.43;4.43;;;;;;;2.34;100.00;102063.84;2107688;28;20089;-69
2021/10/16 01:19:07;;;;;;;6.03;3.47;;;;;;;2.35;100.00;102065.56;2107658;28;20435;-69
2021/10/16 01:20:11;;;;;;;13.13;4.57;;;;;;;2.33;100.00;102062.13;2106952;28;20020;-69
2021/10/16 01:21:12;;;;;;;6.65;3.97;;;;;;;2.33;100.00;102063.00;2107086;28;20032;-69
2021/10/16 01:22:13;;;;;;;6.80;3.65;;;;;;;2.36;100.00;102063.00;2107662;28;20477;-69
2021/10/16 01:23:14;;;;;;;11.40;3.92;;;;;;;2.39;100.00;102062.22;2107666;28;20051;-69
2021/10/16 01:24:16;;;;;;;9.90;3.88;;;;;;;2.42;100.00;102062.22;2107635;28;20112;-68
2021/10/16 01:25:20;;;;;;;8.60;3.60;;;;;;;2.42;100.00;102063.09;2107658;28;20115;-68
2021/10/16 01:26:21;;;;;;;11.38;4.10;;;;;;;2.45;100.00;102057.09;2107611;28;20024;-68
2021/10/16 01:27:22;;;;;;;10.02;4.13;;;;;;;2.47;100.00;102052.84;2107582;28;20489;-69
2021/10/16 01:28:22;;;;;;;8.10;3.55;;;;;;;2.49;100.00;102053.72;2107607;28;20016;-69
2021/10/16 01:29:24;;;;;;;10.10;4.25;;;;;;;2.50;100.00;102045.13;2106916;28;20074;-69
2021/10/16 01:30:26;;;;;;;6.60;3.75;;;;;;;2.48;100.00;102044.25;2106999;28;20020;-68
2021/10/16 01:31:26;;;;;;;12.73;4.40;;;;;;;2.48;100.00;102046.84;2106787;28;20416;-68
2021/10/16 01:32:28;;;;;;;9.07;4.35;;;;;;;2.44;100.00;102053.66;2107136;28;20031;-68
2021/10/16 01:33:29;;;;;;;6.80;3.25;;;;;;;2.43;100.00;102049.34;2107763;28;20032;-69
2021/10/16 01:34:31;;;;;;;11.82;4.47;;;;;;;2.41;100.00;102051.06;2106878;28;20031;-69
2021/10/16 01:35:32;;;;;;;10.50;4.03;;;;;;;2.41;100.00;102051.06;2106775;28;20466;-68
2021/10/16 01:36:47;;;;;;;6.03;3.45;;;;;;;2.44;100.00;102055.38;2107566;28;20024;-68
2021/10/16 01:37:49;;;;;;;10.57;3.72;;;;;;;2.42;100.00;102054.47;2107560;28;20032;-69
2021/10/16 01:38:50;;;;;;;8.65;3.80;;;;;;;2.38;100.00;102053.59;2107583;28;20074;-70
2021/10/16 01:39:50;;;;;;;9.65;4.15;;;;;;;2.39;100.00;102050.16;2107566;28;20443;-69
2021/10/16 01:40:51;;;;;;;8.27;4.63;;;;;;;2.39;100.00;102047.59;2107458;28;20024;-69
2021/10/16 01:41:52;;;;;;;10.88;4.35;;;;;;;2.39;100.00;102046.75;2107479;28;20162;-69
2021/10/16 01:42:53;;;;;;;8.45;3.83;;;;;;;2.37;100.00;102048.44;2106747;28;20028;-68
2021/10/16 01:43:54;;;;;;;7.45;3.97;;;;;;;2.36;100.00;102049.28;2098429;28;20549;-68
2021/10/16 01:44:55;;;;;;;9.40;3.97;;;;;;;2.31;100.00;102044.06;2106886;28;20020;-69
2021/10/16 01:45:55;;;;;;;7.13;3.70;;;;;;;2.28;100.00;102042.31;2106788;28;20123;-68
2021/10/16 01:46:56;;;;;;;11.43;3.77;;;;;;;2.27;100.00;102038.03;2106863;28;20059;-68
2021/10/16 01:47:56;;;;;;;9.57;4.35;;;;;;;2.29;100.00;102038.91;2107370;28;20288;-69
2021/10/16 01:48:57;;;;;;;7.55;3.97;;;;;;;2.27;100.00;102038.03;2107489;28;20520;-69
2021/10/16 01:49:58;;;;;;;5.60;3.42;;;;;;;2.27;100.00;102038.03;2107455;28;20040;-69
2021/10/16 01:50:59;;;;;;;6.68;4.38;;;;;;;2.28;100.00;102037.16;2107415;28;20081;-69
2021/10/16 01:52:00;;;;;;;11.07;4.68;;;;;;;2.29;100.00;102038.91;2107428;28;20044;-68
2021/10/16 01:53:07;;;;;;;6.03;3.53;;;;;;;2.28;100.00;102039.75;2107437;28;20036;-68
2021/10/16 01:54:08;;;;;;;6.03;3.70;;;;;;;2.25;100.00;102039.69;2107393;28;20020;-68
2021/10/16 01:55:09;;;;;;;;;;;;;;;2.24;100.00;102043.13;2107828;28;20034;-69
2021/10/16 01:56:09;;;;;;;6.95;3.55;;;;;;;2.28;100.00;102044.03;2107483;28;19915;-69
2021/10/16 01:57:10;;;;;;;6.53;3.13;;;;;;;2.33;100.00;102044.09;2107481;28;20031;-69
2021/10/16 01:58:13;;;;;;;11.32;4.22;;;;;;;2.30;100.00;102043.19;2107516;28;20485;-69
2021/10/16 01:59:19;;;;;;;8.05;4.00;;;;;;;2.28;100.00;102036.28;2107397;28;20032;-69
2021/10/16 02:00:19;;;;;;;11.10;4.15;;;;;;;2.26;100.00;102046.56;2107377;28;20034;-69
2021/10/16 02:01:20;;;;;;;9.32;4.35;;;;;;;2.26;100.00;102040.59;2107372;28;20042;-68
2021/10/16 02:02:20;;;;;;;16.30;4.25;;;;;;;2.23;100.00;102046.56;2107410;28;20464;-70
2021/10/16 02:03:21;;;;;;;10.00;4.20;;;;;;;2.22;100.00;102046.53;2107282;28;20109;-69
2021/10/16 02:04:22;;;;;;;10.65;4.32;;;;;;;2.21;100.00;102043.09;2107370;28;20102;-69
2021/10/16 02:05:23;;;;;;;;;;;;;;;2.21;100.00;102047.38;2107763;28;20034;-69
2021/10/16 02:06:23;;;;;;;10.60;4.43;;;;;;;2.19;100.00;102049.94;2107333;28;19919;-69
2021/10/16 02:07:24;;;;;;;11.17;5.93;;;;;;;2.16;100.00;102043.03;2107207;28;20056;-68
2021/10/16 02:08:25;;;;;;;12.57;4.05;;;;;;;2.15;100.00;102048.16;2106611;28;20177;-68
2021/10/16 02:09:26;;;;;;;12.25;4.18;;;;;;;2.14;100.00;102043.84;2106690;28;20016;-68
2021/10/16 02:10:26;;;;;;;7.90;3.42;;;;;;;2.12;100.00;102050.72;2107370;28;20111;-68
2021/10/16 02:11:27;;;;;;;7.07;5.03;;;;;;;2.11;100.00;102046.38;2107325;28;20026;-68
2021/10/16 02:12:28;;;;;;;10.82;4.38;;;;;;;2.10;100.00;102044.66;2106550;28;20476;-68
2021/10/16 02:13:28;;;;;;;7.90;4.45;;;;;;;2.11;100.00;102048.97;2098139;28;20495;-67
2021/10/16 02:14:29;;;;;;;9.77;4.18;;;;;;;2.11;100.00;102051.53;2106652;28;20066;-69
2021/10/16 02:15:30;;;;;;;5.28;3.08;;;;;;;2.10;100.00;102044.66;2107274;28;20095;-68
2021/10/16 02:16:31;;;;;;;9.50;4.22;;;;;;;2.08;100.00;102047.22;2106600;28;20028;-69
2021/10/16 02:17:32;;;;;;;9.93;4.15;;;;;;;2.04;100.00;102046.34;2098299;28;20027;-69
2021/10/16 02:18:32;;;;;;;7.47;3.63;;;;;;;2.03;100.00;102049.75;2106730;28;20019;-67
2021/10/16 02:19:33;;;;;;;7.53;4.17;;;;;;;2.05;100.00;102042.91;2107198;28;20031;-69
2021/10/16 02:20:34;;;;;;;6.43;4.20;;;;;;;2.05;100.00;102048.06;2106608;28;20024;-68
2021/10/16 02:21:35;;;;;;;6.65;2.92;;;;;;;2.03;100.00;102042.03;2098145;28;20036;-69
2021/10/16 02:22:35;;;;;;;7.20;4.03;;;;;;;2.01;100.00;102042.84;2106653;28;20031;-68
2021/10/16 02:23:36;;;;;;;10.30;4.50;;;;;;;2.01;100.00;102045.41;2107184;28;20036;-68
2021/10/16 02:24:37;;;;;;;8.13;3.97;;;;;;;2.01;100.00;102040.25;2107126;28;20081;-68
2021/10/16 02:25:38;;;;;;;9.48;4.72;;;;;;;2.00;100.00;102044.56;2107181;28;20109;-68
2021/10/16 02:26:38;;;;;;;12.10;4.10;;;;;;;2.00;100.00;102047.13;2107140;28;20020;-68
2021/10/16 02:27:39;;;;;;;7.50;4.53;;;;;;;1.99;100.00;102044.53;2107212;28;20023;-68
2021/10/16 02:28:39;;;;;;;7.37;4.17;;;;;;;1.97;100.00;102039.38;2106772;28;20361;-68
2021/10/16 02:29:40;;;;;;;11.32;4.65;;;;;;;1.99;100.00;102041.97;2107255;28;20713;-67
2021/10/16 02:30:41;;;;;;;9.05;4.25;;;;;;;1.96;100.00;102040.22;2107240;28;20024;-69
2021/10/16 02:31:42;;;;;;;6.03;3.53;;;;;;;1.95;100.00;102040.19;2106421;28;20028;-68
2021/10/16 02:32:43;;;;;;;9.30;4.03;;;;;;;1.95;100.00;102046.19;2106530;28;20224;-68
2021/10/16 02:33:43;;;;;;;11.38;4.75;;;;;;;1.93;100.00;102047.91;2107128;28;20284;-68
2021/10/16 02:34:44;;;;;;;10.57;4.25;;;;;;;1.92;100.00;102038.47;2107121;28;20027;-68
2021/10/16 02:35:45;;;;;;;5.38;4.60;;;;;;;1.93;100.00;102042.75;2106895;28;20051;-67
2021/10/16 02:36:45;;;;;;;8.82;3.90;;;;;;;1.95;100.00;102045.34;2106408;28;20024;-69
2021/10/16 02:37:46;;;;;;;8.02;4.25;;;;;;;1.93;100.00;102048.78;2106614;28;20019;-69
2021/10/16 02:38:46;;;;;;;7.57;3.28;;;;;;;1.94;100.00;102049.63;2107084;28;20102;-69
2021/10/16 02:39:47;;;;;;;7.70;3.92;;;;;;;1.96;100.00;102053.09;2107034;28;20028;-68
2021/10/16 02:40:47;;;;;;;7.43;4.17;;;;;;;1.96;100.00;102050.53;2107047;28;20016;-69
2021/10/16 02:41:48;;;;;;;8.93;3.97;;;;;;;1.97;100.00;102054.81;2107095;28;20469;-67
2021/10/16 02:42:48;;;;;;;11.40;4.15;;;;;;;1.97;100.00;102049.66;2107046;28;20472;-69
2021/10/16 02:43:49;;;;;;;9.80;4.40;;;;;;;1.97;100.00;102053.94;2106818;28;20059;-68
2021/10/16 02:44:50;;;;;;;9.83;3.57;;;;;;;1.97;100.00;102053.94;2107029;28;20027;-68
2021/10/16 02:45:50;;;;;;;7.28;4.40;;;;;;;1.95;100.00;102053.91;2106346;28;20039;-69
2021/10/16 02:46:51;;;;;;;7.57;3.40;;;;;;;1.94;100.00;102054.78;2106408;28;20492;-69
2021/10/16 02:47:52;;;;;;;7.60;3.78;;;;;;;1.95;100.00;102056.50;2106982;28;20059;-68
2021/10/16 02:48:52;;;;;;;7.50;3.60;;;;;;;1.96;100.00;102055.69;2106959;28;20111;-70
2021/10/16 02:49:53;;;;;;;9.03;4.50;;;;;;;1.95;100.00;102053.91;2106322;28;20028;-69
2021/10/16 02:50:53;;;;;;;10.23;4.27;;;;;;;1.98;100.00;102058.28;2097930;28;20093;-69
2021/10/16 02:51:54;;;;;;;10.20;4.77;;;;;;;2.00;100.00;102060.03;2097961;28;20315;-68
2021/10/16 02:52:55;;;;;;;6.88;3.95;;;;;;;2.02;100.00;102058.31;2106363;28;20035;-68
2021/10/16 02:53:56;;;;;;;10.73;4.25;;;;;;;2.01;100.00;102056.59;2106961;28;20385;-68
2021/10/16 02:54:56;;;;;;;6.80;3.97;;;;;;;2.03;100.00;102059.19;2106982;28;20050;-68
2021/10/16 02:55:57;;;;;;;8.20;3.47;;;;;;;2.02;100.00;102055.72;2106897;28;20432;-68
2021/10/16 02:56:57;;;;;;;5.50;4.13;;;;;;;2.02;100.00;102060.88;2106938;28;20020;-69
2021/10/16 02:57:58;;;;;;;5.70;3.35;;;;;;;2.03;100.00;102059.19;2106983;28;20106;-70
2021/10/16 02:58:59;;;;;;;10.45;4.38;;;;;;;2.04;100.00;102055.75;2106297;28;20115;-69
2021/10/16 02:59:59;;;;;;;8.70;3.63;;;;;;;2.04;100.00;102061.78;2106307;28;20024;-68
2021/10/16 03:00:59;;;;;;;9.88;4.07;;;;;;;2.04;100.00;102056.63;2106999;28;20033;-69
2021/10/16 03:02:00;;;;;;;7.67;3.43;;;;;;;2.08;100.00;102056.69;2106929;28;20050;-69
2021/10/16 03:03:00;;;;;;;6.97;4.10;;;;;;;2.11;100.00;102056.69;2106788;28;20024;-68
2021/10/16 03:04:01;;;;;;;7.53;4.50;;;;;;;2.14;100.00;102061.88;2106910;28;20034;-69
2021/10/16 03:05:03;;;;;;;8.65;4.20;;;;;;;2.16;100.00;102055.91;2106927;28;20758;-68
2021/10/16 03:06:03;;;;;;;9.93;3.50;;;;;;;2.19;100.00;102053.38;2106930;28;20052;-69
2021/10/16 03:07:04;;;;;;;10.67;5.23;;;;;;;2.21;100.00;102053.41;2106874;28;20040;-68
2021/10/16 03:08:04;;;;;;;8.30;3.63;;;;;;;2.25;100.00;102051.72;2106763;28;20024;-69
2021/10/16 03:09:05;;;;;;;6.75;3.30;;;;;;;2.29;100.00;102062.06;2106860;28;20077;-69
2021/10/16 03:10:06;;;;;;;9.45;4.00;;;;;;;2.35;100.00;102052.69;2106857;28;20036;-69
2021/10/16 03:11:06;;;;;;;9.10;4.30;;;;;;;2.38;100.00;102057.88;2106919;28;20032;-69
2021/10/16 03:12:07;;;;;;;6.13;3.87;;;;;;;2.40;100.00;102053.63;2106886;28;20381;-68
2021/10/16 03:13:07;;;;;;;12.53;3.90;;;;;;;2.43;100.00;102056.22;2106865;28;20116;-69
2021/10/16 03:14:08;;;;;;;7.77;3.80;;;;;;;2.46;100.00;102052.81;2106181;28;20274;-68
2021/10/16 03:15:09;;;;;;;7.32;3.70;;;;;;;2.47;100.00;102055.41;2106325;28;20031;-69
2021/10/16 03:16:10;;;;;;;9.82;3.47;;;;;;;2.48;100.00;102056.25;2106826;28;20103;-69
2021/10/16 03:17:10;;;;;;;14.18;3.95;;;;;;;2.50;100.00;102058.00;2106817;28;20163;-69
2021/10/16 03:18:11;;;;;;;10.20;3.90;;;;;;;2.54;100.00;102054.63;2106836;28;20024;-69
2021/10/16 03:19:12;;;;;;;10.73;4.17;;;;;;;2.58;100.00;102055.53;2106886;28;20020;-69
2021/10/16 03:20:12;;;;;;;7.55;3.50;;;;;;;2.61;100.00;102053.00;2106726;28;20285;-69
2021/10/16 03:21:13;;;;;;;8.98;4.38;;;;;;;2.62;100.00;102059.88;2106800;28;20028;-69
2021/10/16 03:22:14;;;;;;;12.13;4.80;;;;;;;2.63;100.00;102050.44;2106809;28;20115;-68
2021/10/16 03:23:14;;;;;;;9.60;4.90;;;;;;;2.65;100.00;102057.31;2106741;28;20055;-68
2021/10/16 03:24:15;;;;;;;6.50;3.83;;;;;;;2.67;100.00;102052.19;2106748;28;20369;-68
2021/10/16 03:25:16;;;;;;;5.95;3.63;;;;;;;2.69;100.00;102048.78;2106790;28;20040;-68
2021/10/16 03:26:16;;;;;;;8.57;4.07;;;;;;;2.74;100.00;102053.94;2106795;28;20188;-68
2021/10/16 03:27:17;;;;;;;7.03;3.83;;;;;;;2.79;100.00;102049.72;2106835;28;20052;-69
2021/10/16 03:28:18;;;;;;;6.28;3.80;;;;;;;2.80;100.00;102050.56;2106850;28;20514;-68
2021/10/16 03:29:18;;;;;;;9.05;4.30;;;;;;;2.81;100.00;102048.00;2106737;28;20077;-68
2021/10/16 03:30:19;;;;;;;8.85;3.90;;;;;;;2.85;100.00;102048.03;2106797;28;20016;-69
2021/10/16 03:31:19;;;;;;;9.03;4.40;;;;;;;2.86;100.00;102047.19;2106795;28;20113;-68
2021/10/16 03:32:20;;;;;;;7.47;4.60;;;;;;;2.87;100.00;102052.38;2106721;28;20066;-68
2021/10/16 03:33:21;;;;;;;15.18;4.63;;;;;;;2.89;100.00;102047.22;2106819;28;20160;-68
2021/10/16 03:34:21;;;;;;;8.73;4.30;;;;;;;2.90;100.00;102047.25;2106772;28;20082;-69
2021/10/16 03:35:22;;;;;;;7.57;4.35;;;;;;;2.92;100.00;102049.84;2106520;28;20052;-68
2021/10/16 03:36:23;;;;;;;9.20;5.53;;;;;;;2.91;100.00;102055.84;2106084;28;20036;-68
2021/10/16 03:37:24;;;;;;;8.68;4.38;;;;;;;2.92;100.00;102052.41;2106205;28;20126;-68
2021/10/16 03:38:24;;;;;;;7.25;3.13;;;;;;;2.93;100.00;102048.97;2106748;28;20020;-67
2021/10/16 03:39:25;;;;;;;11.13;3.60;;;;;;;2.94;100.00;102056.72;2106777;28;20028;-69
2021/10/16 03:40:26;;;;;;;8.43;4.25;;;;;;;2.96;100.00;102049.88;2106714;28;20035;-69
2021/10/16 03:41:27;;;;;;;6.78;4.25;;;;;;;2.99;100.00;102049.03;2108386;28;20032;-68
2021/10/16 03:42:27;;;;;;;8.48;3.90;;;;;;;3.00;100.00;102053.34;2108460;28;20469;-68
2021/10/16 03:43:28;;;;;;;7.25;4.15;;;;;;;3.01;100.00;102057.66;2107614;28;20032;-68
2021/10/16 03:44:29;;;;;;;9.35;4.63;;;;;;;3.04;100.00;102052.53;2107745;28;20024;-68
2021/10/16 03:45:30;;;;;;;8.30;4.20;;;;;;;3.06;100.00;102053.41;2108418;28;20374;-68
2021/10/16 03:46:30;;;;;;;7.15;4.15;;;;;;;3.08;100.00;102053.44;2108486;28;20069;-66
2021/10/16 03:47:30;;;;;;;7.17;4.23;;;;;;;3.11;100.00;102047.44;2108391;28;20396;-67
2021/10/16 03:48:31;;;;;;;11.07;4.40;;;;;;;3.13;100.00;102049.16;2107726;28;20483;-67
2021/10/16 03:49:32;;;;;;;10.90;4.90;;;;;;;3.17;100.00;102044.88;2107837;28;20361;-69
2021/10/16 03:50:34;;;;;;;9.40;4.30;;;;;;;3.21;100.00;102044.91;2108349;28;20035;-67
2021/10/16 03:51:35;;;;;;;9.95;5.60;;;;;;;3.25;100.00;102037.22;2108352;28;20016;-67
2021/10/16 03:52:35;;;;;;;11.00;4.47;;;;;;;3.27;100.00;102044.09;2108375;28;20435;-66
2021/10/16 03:53:36;;;;;;;12.52;4.10;;;;;;;3.29;100.00;102047.53;2108374;28;20028;-67
2021/10/16 03:54:37;;;;;;;9.18;5.40;;;;;;;3.31;100.00;102051.00;2108364;28;20050;-66
2021/10/16 03:55:38;;;;;;;11.60;5.80;;;;;;;3.32;100.00;102049.31;2107703;28;20469;-67
2021/10/16 03:56:39;;;;;;;9.95;5.10;;;;;;;3.31;100.00;102045.84;2099203;28;20032;-66
2021/10/16 03:57:39;;;;;;;10.18;4.45;;;;;;;3.31;100.00;102052.72;2107768;28;20059;-66
2021/10/16 03:58:40;;;;;;;8.15;3.72;;;;;;;3.32;100.00;102046.72;2108262;28;20031;-67
2021/10/16 03:59:43;;;;;;;7.47;4.22;;;;;;;3.33;100.00;102040.72;2108335;28;20020;-67
2021/10/16 04:00:43;;;;;;;6.88;4.57;;;;;;;3.35;100.00;102039.00;2107600;28;20016;-67
2021/10/16 04:01:44;;;;;;;11.77;5.70;;;;;;;3.37;100.00;102044.16;2107783;28;20099;-67
2021/10/16 04:02:47;;;;;;;9.50;4.75;;;;;;;3.37;100.00;102045.03;2108313;28;20289;-66
2021/10/16 04:03:47;;;;;;;11.55;4.13;;;;;;;3.38;100.00;102040.75;2108232;28;20020;-66
2021/10/16 04:04:48;;;;;;;8.47;3.93;;;;;;;3.40;100.00;102049.34;2108326;28;20031;-67
2021/10/16 04:05:48;;;;;;;9.13;4.57;;;;;;;3.43;100.00;102051.97;2108319;28;20273;-68
2021/10/16 04:06:49;;;;;;;5.97;4.10;;;;;;;3.44;100.00;102051.09;2108347;28;20032;-67
2021/10/16 04:07:50;;;;;;;10.85;5.85;;;;;;;3.45;100.00;102040.78;2108268;28;20055;-67
2021/10/16 04:08:50;;;;;;;15.48;5.05;;;;;;;3.47;100.00;102043.38;2108183;28;20525;-67
2021/10/16 04:09:51;;;;;;;11.45;4.47;;;;;;;3.49;100.00;102046.81;2108259;28;20027;-68
2021/10/16 04:10:52;;;;;;;14.63;5.13;;;;;;;3.51;100.00;102042.56;2108264;28;20031;-66
2021/10/16 04:11:53;;;;;;;12.23;5.45;;;;;;;3.55;100.00;102043.41;2108237;28;20020;-67
2021/10/16 04:12:55;;;;;;;12.65;4.63;;;;;;;3.56;100.00;102048.59;2108263;28;20473;-67
2021/10/16 04:13:55;;;;;;;14.07;5.25;;;;;;;3.56;100.00;102048.59;2108210;28;20027;-67
2021/10/16 04:14:56;;;;;;;8.15;4.78;;;;;;;3.58;100.00;102051.19;2108240;28;20031;-66
2021/10/16 04:15:56;;;;;;;15.03;5.00;;;;;;;3.61;100.00;102053.78;2108221;28;20107;-69
2021/10/16 04:16:57;;;;;;;15.80;4.90;;;;;;;3.62;100.00;102055.50;2108247;28;20024;-68
2021/10/16 04:17:57;;;;;;;14.43;5.30;;;;;;;3.63;100.00;102052.09;2108143;28;20028;-66
2021/10/16 04:18:58;;;;;;;9.88;4.88;;;;;;;3.66;100.00;102048.66;2108243;28;20055;-67
2021/10/16 04:19:59;;;;;;;8.80;4.00;;;;;;;3.69;100.00;102056.41;2108170;28;20157;-66
2021/10/16 04:21:00;;;;;;;11.98;5.10;;;;;;;3.71;100.00;102047.84;2108116;28;20096;-68
2021/10/16 04:22:00;;;;;;;7.10;5.18;;;;;;;3.75;100.00;102046.13;2108156;28;20027;-67
2021/10/16 04:23:01;;;;;;;9.13;4.40;;;;;;;3.79;100.00;102047.00;2108090;28;20020;-68
2021/10/16 04:24:02;;;;;;;8.25;4.38;;;;;;;3.80;100.00;102044.44;2107407;28;20378;-68
2021/10/16 04:25:03;;;;;;;7.13;4.03;;;;;;;3.81;100.00;102041.00;2107459;28;20264;-67
2021/10/16 04:26:03;;;;;;;12.48;4.90;;;;;;;3.84;100.00;102040.16;2107558;28;20063;-68
2021/10/16 04:27:04;;;;;;;7.88;5.15;;;;;;;3.85;100.00;102044.47;2107449;28;20111;-69
2021/10/16 04:28:05;;;;;;;7.80;4.32;;;;;;;3.85;100.00;102042.75;2099134;28;20048;-68
2021/10/16 04:29:06;;;;;;;10.73;5.55;;;;;;;3.88;100.00;102041.91;2107374;28;20052;-67
2021/10/16 04:30:07;;;;;;;9.75;5.43;;;;;;;3.91;100.00;102041.03;2107566;28;20039;-67
2021/10/16 04:31:07;;;;;;;8.68;4.30;;;;;;;3.93;100.00;102039.34;2108141;28;20034;-67
2021/10/16 04:32:08;;;;;;;8.77;4.38;;;;;;;3.94;100.00;102038.47;2108127;28;20384;-66
2021/10/16 04:33:09;;;;;;;11.02;4.57;;;;;;;3.96;100.00;102040.22;2108115;28;20028;-66
2021/10/16 04:34:09;;;;;;;8.47;4.90;;;;;;;3.97;100.00;102043.69;2108120;28;20020;-67
2021/10/16 04:35:10;;;;;;;13.75;5.22;;;;;;;3.99;100.00;102036.78;2107737;28;20052;-67
2021/10/16 04:36:11;;;;;;;6.90;5.03;;;;;;;4.01;100.00;102031.63;2107680;28;20106;-67
2021/10/16 04:37:11;;;;;;;12.40;5.50;;;;;;;4.03;100.00;102035.94;2106924;28;20107;-67
2021/10/16 04:38:12;;;;;;;10.90;4.77;;;;;;;4.05;100.00;102039.41;2106995;28;20035;-67
2021/10/16 04:39:13;;;;;;;12.90;5.25;;;;;;;4.08;100.00;102038.53;2107515;28;20549;-67
2021/10/16 04:40:18;;;;;;;7.45;4.63;;;;;;;4.09;100.00;102042.84;2107436;28;20016;-68
2021/10/16 04:41:18;;;;;;;10.55;3.58;;;;;;;4.09;100.00;102046.31;2107528;28;20024;-67
2021/10/16 04:42:19;;;;;;;13.00;4.63;;;;;;;4.09;100.00;102054.06;2107478;28;20054;-66